Time;durP1;ratioP1;P1;durP2;ratioP2;P2;SDS_P1;SDS_P2;PMS_P1;PMS_P2;Temp;Humidity;BMP_temperature;BMP_pressure;BME280_temperature;BME280_humidity;BME280_pressure;Samples;Min_cycle;Max_cycle;Signal;HPM_P1;HPM_P2
2021/08/08 00:00:45;;;;;;;11.18;9.93;;;17.20;99.90;;;;;;5048324;28;20422;-83
2021/08/08 00:03:10;;;;;;;10.57;9.57;;;17.10;99.90;;;;;;5068570;28;20505;-78
2021/08/08 00:05:36;;;;;;;10.57;9.57;;;17.10;99.90;;;;;;5067851;28;20382;-83
2021/08/08 00:08:02;;;;;;;10.83;9.73;;;17.10;99.90;;;;;;5067127;28;20381;-80
2021/08/08 00:10:28;;;;;;;12.32;9.90;;;17.10;99.90;;;;;;5051808;28;20445;-78
2021/08/08 00:12:53;;;;;;;11.70;10.43;;;17.10;99.90;;;;;;5069494;28;20408;-80
2021/08/08 00:15:19;;;;;;;12.13;10.60;;;17.10;99.90;;;;;;5051315;28;20386;-78
2021/08/08 00:17:44;;;;;;;11.32;10.15;;;17.00;99.90;;;;;;5069853;28;20382;-79
2021/08/08 00:20:11;;;;;;;13.13;10.33;;;17.00;99.90;;;;;;5069893;28;20739;-77
2021/08/08 00:22:37;;;;;;;12.10;10.90;;;17.00;99.90;;;;;;5070551;28;20385;-77
2021/08/08 00:25:04;;;;;;;11.43;10.32;;;16.90;99.90;;;;;;5052866;28;20374;-77
2021/08/08 00:27:30;;;;;;;12.18;10.85;;;16.90;99.90;;;;;;5070645;28;20365;-81
2021/08/08 00:29:56;;;;;;;14.80;11.18;;;16.90;99.90;;;;;;5070474;28;20370;-79
2021/08/08 00:32:23;;;;;;;15.23;11.73;;;16.90;99.90;;;;;;5070545;28;20401;-80
2021/08/08 00:34:49;;;;;;;13.82;11.70;;;16.90;99.90;;;;;;5052747;28;20386;-76
2021/08/08 00:37:14;;;;;;;11.98;10.80;;;16.90;99.90;;;;;;5070642;28;20805;-80
2021/08/08 00:39:40;;;;;;;12.65;11.05;;;16.80;99.90;;;;;;5069899;28;20436;-78
2021/08/08 00:42:06;;;;;;;12.60;11.30;;;16.90;99.90;;;;;;5070379;28;20375;-77
2021/08/08 00:44:31;;;;;;;12.25;10.95;;;16.90;99.90;;;;;;5070812;28;20497;-77
2021/08/08 00:46:57;;;;;;;11.63;10.43;;;16.90;99.90;;;;;;5070377;28;20397;-81
2021/08/08 00:49:24;;;;;;;11.95;10.65;;;17.00;99.90;;;;;;5069965;28;20370;-83
2021/08/08 00:51:50;;;;;;;11.43;10.00;;;17.10;99.90;;;;;;5070111;28;20487;-80
2021/08/08 00:54:16;;;;;;;11.45;10.27;;;17.10;99.90;;;;;;5070332;28;20420;-80
2021/08/08 00:56:42;;;;;;;11.10;9.77;;;17.10;99.90;;;;;;5070372;28;20410;-80
2021/08/08 00:59:07;;;;;;;12.60;10.13;;;17.20;99.90;;;;;;5064356;28;20476;-78
2021/08/08 01:01:39;;;;;;;13.73;9.82;;;17.20;99.90;;;;;;5090538;28;20383;-81
2021/08/08 01:04:07;;;;;;;10.32;9.35;;;17.20;99.90;;;;;;5072641;28;20551;-78
2021/08/08 01:06:42;;;;;;;12.57;9.60;;;17.10;99.90;;;;;;5090869;28;20380;-80
2021/08/08 01:09:11;;;;;;;12.13;9.50;;;17.10;99.90;;;;;;5090116;28;20471;-82
2021/08/08 01:11:37;;;;;;;12.27;8.90;;;17.10;99.90;;;;;;5089932;28;20948;-80
2021/08/08 01:14:06;;;;;;;11.82;9.18;;;17.00;99.90;;;;;;5090456;28;20395;-79
2021/08/08 01:16:32;;;;;;;9.82;8.82;;;17.00;99.90;;;;;;5090035;28;20368;-79
2021/08/08 01:18:59;;;;;;;12.30;9.40;;;16.90;99.90;;;;;;5090002;28;20408;-77
2021/08/08 01:21:30;;;;;;;9.82;8.60;;;16.80;99.90;;;;;;5090146;28;20391;-77
2021/08/08 01:23:57;;;;;;;10.00;9.02;;;16.80;99.90;;;;;;5090197;28;20369;-81
2021/08/08 01:26:25;;;;;;;10.40;9.10;;;16.80;99.90;;;;;;5090135;28;20491;-78
2021/08/08 01:28:53;;;;;;;11.20;8.32;;;16.80;99.90;;;;;;5089172;28;20377;-81
2021/08/08 01:31:20;;;;;;;9.88;8.88;;;16.90;99.90;;;;;;5071946;28;20894;-80
2021/08/08 01:33:46;;;;;;;9.27;8.30;;;16.90;99.90;;;;;;5091445;28;20373;-77
2021/08/08 01:36:12;;;;;;;9.82;8.55;;;16.80;99.90;;;;;;5071644;28;20866;-76
2021/08/08 01:38:42;;;;;;;8.97;7.60;;;16.80;99.90;;;;;;5089266;28;20402;-81
2021/08/08 01:41:10;;;;;;;10.15;8.25;;;16.90;99.90;;;;;;5089704;28;20839;-77
2021/08/08 01:43:40;;;;;;;9.50;7.55;;;16.90;99.90;;;;;;5089493;28;20475;-80
2021/08/08 01:46:08;;;;;;;8.55;7.68;;;16.90;99.90;;;;;;5089462;28;20368;-80
2021/08/08 01:48:37;;;;;;;9.15;7.60;;;16.90;99.90;;;;;;5089122;28;20851;-80
2021/08/08 01:51:02;;;;;;;9.20;7.93;;;16.90;99.90;;;;;;5071183;28;20377;-78
2021/08/08 01:53:28;;;;;;;8.63;7.40;;;16.90;99.90;;;;;;5088999;28;20368;-78
2021/08/08 01:55:54;;;;;;;9.43;7.28;;;17.00;99.90;;;;;;5089222;28;20871;-82
2021/08/08 01:58:20;;;;;;;8.30;7.38;;;17.10;99.90;;;;;;5088835;28;20372;-78
2021/08/08 02:00:50;;;;;;;11.07;7.40;;;17.10;99.90;;;;;;5089272;28;20781;-79
2021/08/08 02:03:15;;;;;;;11.45;7.70;;;17.00;99.90;;;;;;5089143;28;20369;-78
2021/08/08 02:05:41;;;;;;;7.57;6.88;;;16.90;99.90;;;;;;5088817;28;20873;-81
2021/08/08 02:08:06;;;;;;;8.83;7.57;;;16.90;99.90;;;;;;5088737;28;20541;-78
2021/08/08 02:10:32;;;;;;;10.77;8.02;;;16.80;99.90;;;;;;5089359;28;20415;-79
2021/08/08 02:12:58;;;;;;;8.88;7.47;;;16.80;99.90;;;;;;5088871;28;20392;-81
2021/08/08 02:15:23;;;;;;;10.17;7.70;;;16.70;99.90;;;;;;5089074;28;20373;-80
2021/08/08 02:17:49;;;;;;;9.38;8.45;;;16.70;99.90;;;;;;5088786;28;20384;-79
2021/08/08 02:20:17;;;;;;;9.03;7.60;;;16.60;99.90;;;;;;5088901;28;20391;-81
2021/08/08 02:22:43;;;;;;;8.77;7.90;;;16.60;99.90;;;;;;5088733;28;20526;-79
2021/08/08 02:25:09;;;;;;;12.13;8.20;;;16.60;99.90;;;;;;5088826;28;20971;-81
2021/08/08 02:27:35;;;;;;;10.43;8.55;;;16.60;99.90;;;;;;5089276;28;20457;-77
2021/08/08 02:30:01;;;;;;;8.82;7.95;;;16.50;99.90;;;;;;5088558;28;20464;-78
2021/08/08 02:32:27;;;;;;;9.52;8.52;;;16.50;99.90;;;;;;5088871;28;20878;-78
2021/08/08 02:34:52;;;;;;;10.30;8.50;;;16.40;99.90;;;;;;5088565;28;20388;-80
2021/08/08 02:37:18;;;;;;;10.17;8.23;;;16.50;99.90;;;;;;5088776;28;20421;-78
2021/08/08 02:39:43;;;;;;;9.10;8.15;;;16.40;99.90;;;;;;5088226;28;20407;-79
2021/08/08 02:42:09;;;;;;;9.33;8.03;;;16.40;99.90;;;;;;5088871;28;20379;-80
2021/08/08 02:44:35;;;;;;;9.77;7.82;;;16.40;99.90;;;;;;5088605;28;20410;-79
2021/08/08 02:47:00;;;;;;;9.77;7.93;;;16.30;99.90;;;;;;5089075;28;20364;-79
2021/08/08 02:49:26;;;;;;;10.15;8.57;;;16.30;99.90;;;;;;5088467;28;20437;-79
2021/08/08 02:51:54;;;;;;;9.70;8.70;;;16.30;99.90;;;;;;5088706;28;20392;-80
2021/08/08 02:54:20;;;;;;;8.38;7.68;;;16.30;99.90;;;;;;5088671;28;20380;-79
2021/08/08 02:56:47;;;;;;;10.40;7.93;;;16.40;99.90;;;;;;5088608;28;20888;-81
2021/08/08 02:59:13;;;;;;;9.38;7.53;;;16.40;99.90;;;;;;5088103;28;20377;-77
2021/08/08 03:01:38;;;;;;;8.65;7.75;;;16.40;99.90;;;;;;5070481;28;20931;-79
2021/08/08 03:04:04;;;;;;;9.50;7.80;;;16.50;99.90;;;;;;5090161;28;20764;-80
2021/08/08 03:06:29;;;;;;;9.05;8.02;;;16.50;99.90;;;;;;5092609;28;20910;-78
2021/08/08 03:08:55;;;;;;;8.83;7.90;;;16.50;99.90;;;;;;5091970;28;20893;-78
2021/08/08 03:11:20;;;;;;;10.30;7.93;;;16.50;99.90;;;;;;5074282;28;20392;-80
2021/08/08 03:13:46;;;;;;;12.73;7.60;;;16.50;99.90;;;;;;5074259;28;20380;-80
2021/08/08 03:16:12;;;;;;;8.55;7.20;;;16.60;99.90;;;;;;5092378;28;20376;-80
2021/08/08 03:18:38;;;;;;;9.10;7.90;;;16.60;99.90;;;;;;5091660;28;20372;-80
2021/08/08 03:21:05;;;;;;;10.73;7.43;;;16.60;99.90;;;;;;5073749;28;20885;-76
2021/08/08 03:23:31;;;;;;;11.02;7.68;;;16.70;99.90;;;;;;5073878;28;20387;-78
2021/08/08 03:25:56;;;;;;;7.70;6.60;;;16.70;99.90;;;;;;5092163;28;20368;-79
2021/08/08 03:28:22;;;;;;;7.95;6.75;;;16.70;99.90;;;;;;5091963;28;20373;-80
2021/08/08 03:30:48;;;;;;;8.38;7.07;;;16.70;99.90;;;;;;5092229;28;20968;-79
2021/08/08 03:33:13;;;;;;;8.57;6.90;;;16.70;99.90;;;;;;5092510;28;20396;-78
2021/08/08 03:35:39;;;;;;;9.55;6.32;;;16.70;99.90;;;;;;5091796;28;20454;-77
2021/08/08 03:38:07;;;;;;;7.90;6.80;;;16.60;99.90;;;;;;5091509;28;20461;-77
2021/08/08 03:40:33;;;;;;;9.80;6.95;;;16.70;99.90;;;;;;5073775;28;20833;-79
2021/08/08 03:42:58;;;;;;;8.30;7.00;;;16.60;99.90;;;;;;5091722;28;20473;-79
2021/08/08 03:45:24;;;;;;;8.87;7.40;;;16.50;99.90;;;;;;5091851;28;20361;-81
2021/08/08 03:47:49;;;;;;;8.30;7.03;;;16.50;99.90;;;;;;5091563;28;20377;-78
2021/08/08 03:50:15;;;;;;;8.27;6.77;;;16.40;99.90;;;;;;5091214;28;20372;-80
2021/08/08 03:52:40;;;;;;;8.52;7.15;;;16.40;99.90;;;;;;5092138;28;20404;-78
2021/08/08 03:55:07;;;;;;;9.73;7.00;;;16.30;99.90;;;;;;5091811;28;20415;-80
2021/08/08 03:57:32;;;;;;;7.85;6.60;;;16.30;99.90;;;;;;5091542;28;20371;-77
2021/08/08 03:59:58;;;;;;;8.02;6.32;;;16.30;99.90;;;;;;5090993;28;20364;-82
2021/08/08 04:02:23;;;;;;;10.27;7.47;;;16.30;99.90;;;;;;5073290;28;20522;-77
2021/08/08 04:04:49;;;;;;;7.32;6.63;;;16.30;99.90;;;;;;5092105;28;20746;-78
2021/08/08 04:07:15;;;;;;;8.10;6.72;;;16.30;99.90;;;;;;5091382;28;20695;-79
2021/08/08 04:09:40;;;;;;;10.80;7.13;;;16.30;99.90;;;;;;5072755;28;20738;-78
2021/08/08 04:12:07;;;;;;;8.20;6.95;;;16.20;99.90;;;;;;5091377;28;20404;-77
2021/08/08 04:14:35;;;;;;;7.28;6.57;;;16.20;99.90;;;;;;5090845;28;20365;-78
2021/08/08 04:17:01;;;;;;;9.23;6.65;;;16.20;99.90;;;;;;5091157;28;20376;-77
2021/08/08 04:19:27;;;;;;;8.60;6.93;;;16.20;99.90;;;;;;5090757;28;20361;-80
2021/08/08 04:21:52;;;;;;;7.73;6.90;;;16.20;99.90;;;;;;5090920;28;20388;-77
2021/08/08 04:24:18;;;;;;;8.83;6.10;;;16.20;99.90;;;;;;5091033;28;20364;-80
2021/08/08 04:26:44;;;;;;;7.00;6.03;;;16.20;99.90;;;;;;5091355;28;20375;-80
2021/08/08 04:29:09;;;;;;;7.82;5.97;;;16.20;99.90;;;;;;5090656;28;20388;-78
2021/08/08 04:31:35;;;;;;;6.40;5.80;;;16.20;99.90;;;;;;5073330;28;20400;-76
2021/08/08 04:34:00;;;;;;;10.25;5.28;;;16.20;99.90;;;;;;5091254;28;20376;-79
2021/08/08 04:36:26;;;;;;;8.77;5.60;;;16.20;99.90;;;;;;5091018;28;20360;-80
2021/08/08 04:38:51;;;;;;;7.40;5.00;;;16.30;99.90;;;;;;5090842;28;20384;-79
2021/08/08 04:41:17;;;;;;;5.53;4.60;;;16.30;99.90;;;;;;5090637;28;20771;-80
2021/08/08 04:43:42;;;;;;;7.40;4.20;;;16.30;99.90;;;;;;5090294;28;20383;-79
2021/08/08 04:46:08;;;;;;;5.40;4.30;;;16.30;99.90;;;;;;5090542;28;20429;-80
2021/08/08 04:48:33;;;;;;;6.53;3.95;;;16.40;99.90;;;;;;5089804;28;20794;-77
2021/08/08 04:50:59;;;;;;;4.67;4.00;;;16.40;99.90;;;;;;5073211;28;20384;-79
2021/08/08 04:53:25;;;;;;;4.47;3.47;;;16.40;99.90;;;;;;5072467;28;20487;-78
2021/08/08 04:55:50;;;;;;;5.37;2.90;;;16.50;99.90;;;;;;5090624;28;20486;-78
2021/08/08 04:58:16;;;;;;;5.90;2.90;;;16.60;99.90;;;;;;5090085;28;20850;-77
2021/08/08 05:00:41;;;;;;;3.10;2.73;;;16.60;99.90;;;;;;5090495;28;20365;-78
2021/08/08 05:03:07;;;;;;;3.40;2.73;;;16.70;99.90;;;;;;5072301;28;20376;-78
2021/08/08 05:05:32;;;;;;;4.00;2.50;;;16.70;99.90;;;;;;5090507;28;20461;-80
2021/08/08 05:07:58;;;;;;;4.17;2.57;;;16.70;99.90;;;;;;5089841;28;20426;-79
2021/08/08 05:10:24;;;;;;;3.05;2.25;;;16.90;99.90;;;;;;5090059;28;20719;-78
2021/08/08 05:12:54;;;;;;;2.88;2.42;;;17.00;99.90;;;;;;5090573;28;20436;-76
2021/08/08 05:15:20;;;;;;;3.88;2.40;;;17.10;99.90;;;;;;5090443;28;20900;-79
2021/08/08 05:17:46;;;;;;;3.88;2.40;;;17.20;99.90;;;;;;5090180;28;20368;-80
2021/08/08 05:20:12;;;;;;;5.77;2.33;;;17.20;99.90;;;;;;5090095;28;20471;-78
2021/08/08 05:22:37;;;;;;;3.00;2.03;;;17.40;99.90;;;;;;5090375;28;20395;-78
2021/08/08 05:25:05;;;;;;;3.40;1.90;;;17.60;99.90;;;;;;5089760;28;20376;-78
2021/08/08 05:27:33;;;;;;;2.70;1.73;;;17.70;99.90;;;;;;5070844;28;20443;-80
2021/08/08 05:30:00;;;;;;;3.70;1.95;;;17.80;99.90;;;;;;5089643;28;20384;-78
2021/08/08 05:32:25;;;;;;;3.08;1.95;;;17.90;99.90;;;;;;5089715;28;20404;-81
2021/08/08 05:34:51;;;;;;;4.15;2.20;;;17.90;99.90;;;;;;5090256;28;20369;-78
2021/08/08 05:37:17;;;;;;;2.93;2.10;;;17.90;99.90;;;;;;5089567;28;20422;-80
2021/08/08 05:39:42;;;;;;;3.42;1.85;;;17.90;99.90;;;;;;5071138;28;21340;-79
2021/08/08 05:42:08;;;;;;;2.60;1.63;;;17.90;99.90;;;;;;5090278;28;20858;-79
2021/08/08 05:44:37;;;;;;;2.45;1.77;;;17.90;99.90;;;;;;5090190;28;20373;-80
2021/08/08 05:47:07;;;;;;;4.80;1.85;;;17.90;99.90;;;;;;5089996;28;20411;-78
2021/08/08 05:49:33;;;;;;;4.93;2.00;;;17.90;99.90;;;;;;5089188;28;20404;-76
2021/08/08 05:52:01;;;;;;;2.65;1.73;;;18.00;99.90;;;;;;5071770;28;20412;-81
2021/08/08 05:54:27;;;;;;;2.80;1.90;;;18.00;99.90;;;;;;5089911;28;20384;-78
2021/08/08 05:56:52;;;;;;;2.30;1.70;;;18.00;99.90;;;;;;5090336;28;20477;-80
2021/08/08 05:59:18;;;;;;;4.07;1.80;;;18.00;99.90;;;;;;5089492;28;20716;-79
2021/08/08 06:01:43;;;;;;;2.30;1.45;;;18.00;99.90;;;;;;5089725;28;20406;-79
2021/08/08 06:04:09;;;;;;;6.30;1.80;;;18.00;99.90;;;;;;5090326;28;20802;-78
2021/08/08 06:06:34;;;;;;;2.33;1.60;;;18.10;99.90;;;;;;5071992;28;20462;-77
2021/08/08 06:09:00;;;;;;;3.10;1.50;;;18.10;99.90;;;;;;5089497;28;20735;-78
2021/08/08 06:11:26;;;;;;;2.20;1.50;;;18.20;99.90;;;;;;5071409;28;21281;-79
2021/08/08 06:13:51;;;;;;;1.63;1.13;;;18.20;99.90;;;;;;5089924;28;20373;-79
2021/08/08 06:16:17;;;;;;;2.95;1.15;;;18.20;99.90;;;;;;5089795;28;20368;-79
2021/08/08 06:18:42;;;;;;;3.77;1.27;;;18.30;99.90;;;;;;5089275;28;20809;-78
2021/08/08 06:21:08;;;;;;;1.58;1.25;;;18.40;99.90;;;;;;5089530;28;20381;-80
2021/08/08 06:23:33;;;;;;;2.37;1.30;;;18.50;99.90;;;;;;5089883;28;20728;-82
2021/08/08 06:25:59;;;;;;;3.03;1.40;;;18.60;99.90;;;;;;5089811;28;20403;-79
2021/08/08 06:28:25;;;;;;;2.80;1.30;;;18.50;99.90;;;;;;5089142;28;20489;-78
2021/08/08 06:30:51;;;;;;;3.00;1.30;;;18.60;99.90;;;;;;5089526;28;20384;-78
2021/08/08 06:33:17;;;;;;;2.05;1.23;;;18.60;99.90;;;;;;5089771;28;20408;-80
2021/08/08 06:35:43;;;;;;;2.47;1.40;;;18.70;99.90;;;;;;5089574;28;20375;-79
2021/08/08 06:38:09;;;;;;;1.60;1.00;;;19.00;99.90;;;;;;5090955;28;20382;-83
2021/08/08 06:40:34;;;;;;;2.87;1.10;;;19.50;99.90;;;;;;5094108;28;20726;-79
2021/08/08 06:43:02;;;;;;;2.97;1.20;;;19.90;99.90;;;;;;5093599;28;20383;-78
2021/08/08 06:45:28;;;;;;;3.53;1.50;;;20.30;99.90;;;;;;5093328;28;20381;-79
2021/08/08 06:47:53;;;;;;;3.63;1.20;;;20.70;99.90;;;;;;5093365;28;20375;-78
2021/08/08 06:50:19;;;;;;;2.07;1.33;;;21.00;99.90;;;;;;5093322;28;20430;-76
2021/08/08 06:52:45;;;;;;;3.13;1.30;;;21.20;99.90;;;;;;5092906;28;20401;-79
2021/08/08 06:55:10;;;;;;;4.05;1.40;;;21.60;99.90;;;;;;5092731;28;20383;-80
2021/08/08 06:57:36;;;;;;;2.78;1.40;;;21.80;99.90;;;;;;5091368;28;20459;-80
2021/08/08 07:00:03;;;;;;;3.22;1.13;;;21.80;99.90;;;;;;5091516;28;20411;-78
2021/08/08 07:02:28;;;;;;;3.70;1.10;;;22.00;99.90;;;;;;5074705;28;20414;-79
2021/08/08 07:04:55;;;;;;;2.38;1.05;;;22.30;99.90;;;;;;5093076;28;20384;-80
2021/08/08 07:07:20;;;;;;;2.50;1.20;;;22.50;99.90;;;;;;5075375;28;20737;-78
2021/08/08 07:09:46;;;;;;;2.03;1.00;;;22.60;99.90;;;;;;5092941;28;20381;-80
2021/08/08 07:12:11;;;;;;;2.25;1.00;;;22.40;99.90;;;;;;5092903;28;20781;-79
2021/08/08 07:14:37;;;;;;;3.07;1.20;;;22.20;99.90;;;;;;5093094;28;20387;-79
2021/08/08 07:17:03;;;;;;;2.53;1.07;;;22.20;99.90;;;;;;5093182;28;20904;-78
2021/08/08 07:19:28;;;;;;;4.05;1.15;;;22.20;99.90;;;;;;5092608;28;20380;-81
2021/08/08 07:21:54;;;;;;;2.60;1.10;;;22.10;99.90;;;;;;5092498;28;20845;-78
2021/08/08 07:24:21;;;;;;;1.95;0.95;;;22.20;99.90;;;;;;5093208;28;20520;-81
2021/08/08 07:26:46;;;;;;;2.65;1.17;;;22.40;99.90;;;;;;5074114;28;20726;-78
2021/08/08 07:29:12;;;;;;;3.55;1.15;;;22.40;99.90;;;;;;5073984;28;21228;-81
2021/08/08 07:31:38;;;;;;;2.60;1.17;;;22.30;99.90;;;;;;5092640;28;21026;-77
2021/08/08 07:34:04;;;;;;;1.47;1.00;;;22.40;99.90;;;;;;5093259;28;20361;-81
2021/08/08 07:36:29;;;;;;;3.60;1.47;;;22.40;99.90;;;;;;5092168;28;20429;-82
2021/08/08 07:38:55;;;;;;;3.22;1.48;;;22.30;99.90;;;;;;5091417;28;20385;-82
2021/08/08 07:41:21;;;;;;;2.87;1.20;;;22.40;99.90;;;;;;5074160;28;20446;-82
2021/08/08 07:43:46;;;;;;;3.05;1.15;;;22.40;99.90;;;;;;5091978;28;20404;-81
2021/08/08 07:46:12;;;;;;;2.00;1.20;;;22.30;99.90;;;;;;5092085;28;20377;-79
2021/08/08 07:48:37;;;;;;;2.20;1.33;;;22.30;99.90;;;;;;5091745;28;20461;-80
2021/08/08 07:51:03;;;;;;;2.80;1.37;;;22.30;99.90;;;;;;5091071;28;20890;-78
2021/08/08 07:53:29;;;;;;;2.55;1.42;;;22.40;99.90;;;;;;5092356;28;20403;-77
2021/08/08 07:55:55;;;;;;;4.57;1.37;;;22.60;99.90;;;;;;5091637;28;20374;-82
2021/08/08 07:58:22;;;;;;;3.72;1.20;;;22.90;99.90;;;;;;5091345;28;20739;-78
2021/08/08 08:00:47;;;;;;;2.78;1.23;;;23.00;99.90;;;;;;5073667;28;20412;-78
2021/08/08 08:03:13;;;;;;;3.73;1.30;;;22.90;99.90;;;;;;5091806;28;20416;-78
2021/08/08 08:05:39;;;;;;;3.53;1.20;;;22.50;99.90;;;;;;5091325;28;20377;-76
2021/08/08 08:08:05;;;;;;;4.40;1.15;;;22.50;99.90;;;;;;5090384;28;20376;-80
2021/08/08 08:10:32;;;;;;;1.52;1.10;;;22.60;99.90;;;;;;5090035;28;20389;-81
2021/08/08 08:12:59;;;;;;;2.53;0.93;;;22.60;99.90;;;;;;5090168;28;20525;-82
2021/08/08 08:15:25;;;;;;;3.60;1.13;;;22.70;99.90;;;;;;5090370;28;20384;-80
2021/08/08 08:17:51;;;;;;;2.67;1.10;;;22.70;99.90;;;;;;5089936;28;20380;-79
2021/08/08 08:20:18;;;;;;;1.65;0.80;;;22.90;99.90;;;;;;5089772;28;20393;-83
2021/08/08 08:22:43;;;;;;;1.98;1.00;;;22.90;99.90;;;;;;5089994;28;20453;-78
2021/08/08 08:25:10;;;;;;;2.43;1.13;;;22.80;99.90;;;;;;5091652;28;20376;-78
2021/08/08 08:27:36;;;;;;;1.73;1.00;;;22.70;99.90;;;;;;5091849;28;20388;-80
2021/08/08 08:30:03;;;;;;;3.72;1.05;;;22.90;99.90;;;;;;5091124;28;20457;-79
2021/08/08 08:32:29;;;;;;;1.00;0.70;;;23.10;99.90;;;;;;5091332;28;20829;-79
2021/08/08 08:34:54;;;;;;;2.45;1.10;;;23.20;99.90;;;;;;5091246;28;20368;-79
2021/08/08 08:37:20;;;;;;;2.07;1.20;;;23.30;99.90;;;;;;5091520;28;20373;-79
2021/08/08 08:39:46;;;;;;;3.60;1.40;;;23.20;99.90;;;;;;5091154;28;20790;-78
2021/08/08 08:42:13;;;;;;;4.13;1.00;;;23.30;99.90;;;;;;5072787;28;20369;-76
2021/08/08 08:44:40;;;;;;;2.47;1.15;;;23.40;99.90;;;;;;5090698;28;20384;-81
2021/08/08 08:47:07;;;;;;;1.67;0.90;;;23.70;99.90;;;;;;5091621;28;20473;-81
2021/08/08 08:49:37;;;;;;;2.17;1.00;;;23.40;99.90;;;;;;5089450;28;20373;-79
2021/08/08 08:52:07;;;;;;;2.22;0.90;;;23.30;99.90;;;;;;5089483;28;20415;-78
2021/08/08 08:54:33;;;;;;;4.97;1.08;;;23.20;99.90;;;;;;5090187;28;20376;-81
2021/08/08 08:56:59;;;;;;;1.88;0.88;;;23.00;99.90;;;;;;5090649;28;20399;-79
2021/08/08 08:59:26;;;;;;;1.20;1.00;;;22.80;99.90;;;;;;5089919;28;20373;-79
2021/08/08 09:01:51;;;;;;;4.50;1.20;;;23.00;99.90;;;;;;5089307;28;20762;-80
2021/08/08 09:04:18;;;;;;;1.90;1.00;;;23.10;99.90;;;;;;5090494;28;20395;-80
2021/08/08 09:06:47;;;;;;;2.08;1.00;;;;;;;;;;5090295;28;20459;-80
2021/08/08 09:09:13;;;;;;;0.98;0.80;;;;;;;;;;5089716;28;20369;-79
2021/08/08 09:11:39;;;;;;;1.20;0.85;;;;;;;;;;5072375;28;20879;-81
2021/08/08 09:14:05;;;;;;;1.13;0.90;;;;;;;;;;5090513;28;20397;-82
2021/08/08 09:16:36;;;;;;;1.90;0.70;;;;;;;;;;5088989;28;20375;-79
2021/08/08 09:19:02;;;;;;;2.00;1.15;;;24.40;99.90;;;;;;5088454;28;20365;-80
2021/08/08 09:21:28;;;;;;;1.55;0.80;;;24.30;99.90;;;;;;5088846;28;20738;-80
2021/08/08 09:23:55;;;;;;;1.20;0.77;;;24.30;99.90;;;;;;5089056;28;20372;-82
2021/08/08 09:26:35;;;;;;;0.88;0.80;;;24.40;99.90;;;;;;5088753;28;20456;-82
2021/08/08 09:29:12;;;;;;;1.40;1.00;;;24.80;99.90;;;;;;5070512;28;20383;-79
2021/08/08 09:31:44;;;;;;;3.50;0.80;;;24.90;99.90;;;;;;5089232;28;20400;-80
2021/08/08 09:34:34;;;;;;;3.22;1.00;;;24.90;99.90;;;;;;5071241;28;20377;-78
2021/08/08 09:37:05;;;;;;;2.60;0.90;;;24.70;99.90;;;;;;5071766;28;20380;-78
2021/08/08 09:39:31;;;;;;;1.45;0.93;;;24.50;99.90;;;;;;5090020;28;21000;-79
2021/08/08 09:42:10;;;;;;;1.23;0.90;;;24.40;99.90;;;;;;5090015;28;20447;-79
2021/08/08 09:44:37;;;;;;;1.80;0.90;;;24.60;99.90;;;;;;5090288;28;20412;-80
2021/08/08 09:47:04;;;;;;;2.50;1.20;;;24.50;99.90;;;;;;5090506;28;20434;-81
2021/08/08 09:49:30;;;;;;;2.30;1.10;;;24.40;99.90;;;;;;5071515;28;20455;-82
2021/08/08 09:51:56;;;;;;;2.55;1.42;;;24.20;99.90;;;;;;5089603;28;20396;-80
2021/08/08 09:54:22;;;;;;;1.98;1.17;;;23.90;99.90;;;;;;5071628;28;20772;-79
2021/08/08 09:56:58;;;;;;;2.00;1.13;;;23.90;99.90;;;;;;5071965;28;20384;-78
2021/08/08 09:59:24;;;;;;;2.30;1.17;;;24.00;99.90;;;;;;5089213;28;20400;-81
2021/08/08 10:01:50;;;;;;;2.00;1.00;;;24.20;99.90;;;;;;5090008;28;20379;-80
2021/08/08 10:04:16;;;;;;;2.65;1.30;;;24.40;99.90;;;;;;5088088;28;20368;-83
2021/08/08 10:06:45;;;;;;;2.65;1.40;;;24.50;99.90;;;;;;5086686;28;20483;-77
2021/08/08 10:09:11;;;;;;;2.50;1.05;;;24.40;99.90;;;;;;5084714;28;20395;-81
2021/08/08 10:11:38;;;;;;;3.00;1.20;;;24.40;99.90;;;;;;5084747;28;20491;-79
2021/08/08 10:14:05;;;;;;;2.50;1.35;;;24.40;99.90;;;;;;5067130;28;20525;-81
2021/08/08 10:16:34;;;;;;;1.85;1.10;;;24.20;99.90;;;;;;5067680;28;20467;-81
2021/08/08 10:19:02;;;;;;;2.78;1.23;;;24.00;99.90;;;;;;5085078;28;20377;-79
2021/08/08 10:21:30;;;;;;;2.22;1.10;;;24.00;99.90;;;;;;5088355;28;20398;-82
2021/08/08 10:24:04;;;;;;;2.75;1.20;;;24.00;99.90;;;;;;5080420;28;20489;-79
2021/08/08 10:26:30;;;;;;;3.55;1.38;;;24.00;99.90;;;;;;5082249;28;20404;-81
2021/08/08 10:28:57;;;;;;;3.22;1.23;;;24.00;99.90;;;;;;5084326;28;20377;-82
2021/08/08 10:31:28;;;;;;;2.90;1.40;;;24.10;99.90;;;;;;5084995;28;20404;-81
2021/08/08 10:33:55;;;;;;;1.55;1.10;;;24.20;99.90;;;;;;5082591;28;20376;-80
2021/08/08 10:36:28;;;;;;;1.88;1.10;;;24.60;99.90;;;;;;5085540;28;20372;-79
2021/08/08 10:39:14;;;;;;;4.03;1.38;;;;;;;;;;5064934;28;20389;-80
2021/08/08 10:41:41;;;;;;;3.63;1.20;;;;;;;;;;5067040;28;20900;-83
2021/08/08 10:44:15;;;;;;;2.45;0.90;;;;;;;;;;5067443;28;20380;-78
2021/08/08 10:46:48;;;;;;;3.03;1.17;;;;;;;;;;5066083;28;20388;-81
2021/08/08 10:49:14;;;;;;;3.60;1.30;;;;;;;;;;5083579;28;20373;-81
2021/08/08 10:51:40;;;;;;;3.55;1.30;;;;;;;;;;5064712;28;20469;-83
2021/08/08 10:54:07;;;;;;;2.50;1.23;;;;;;;;;;5062171;28;20388;-83
2021/08/08 10:56:40;;;;;;;2.80;1.40;;;;;;;;;;5082630;28;20819;-79
2021/08/08 10:59:13;;;;;;;4.40;1.70;;;;;;;;;;5082916;28;20850;-82
2021/08/08 11:01:39;;;;;;;5.10;1.88;;;;;;;;;;5082751;28;20369;-80
2021/08/08 11:04:07;;;;;;;5.80;2.15;;;;;;;;;;5085255;28;20919;-80
2021/08/08 11:06:34;;;;;;;4.05;1.85;;;;;;;;;;5059665;28;20376;-80
2021/08/08 11:09:01;;;;;;;4.00;2.30;;;;;;;;;;5062248;28;20388;-80
2021/08/08 11:11:31;;;;;;;5.53;2.30;;;;;;;;;;5063495;28;20449;-80
2021/08/08 11:14:16;;;;;;;7.63;2.13;;;;;;;;;;5063730;28;20376;-80
2021/08/08 11:16:44;;;;;;;4.22;2.00;;;;;;;;;;5084883;28;20400;-80
2021/08/08 11:19:10;;;;;;;2.78;1.55;;;;;;;;;;5084569;28;20384;-79
2021/08/08 11:21:37;;;;;;;2.70;1.30;;;;;;;;;;5084845;28;20430;-82
2021/08/08 11:24:04;;;;;;;3.65;1.30;;;;;;;;;;5067060;28;20369;-79
2021/08/08 11:26:30;;;;;;;3.55;1.38;;;;;;;;;;5088219;28;20839;-82
2021/08/08 11:29:01;;;;;;;2.55;1.08;;;;;;;;;;5087810;28;20392;-79
2021/08/08 11:31:28;;;;;;;1.35;1.20;;;;;;;;;;5088457;28;20453;-81
2021/08/08 11:34:10;;;;;;;3.33;1.20;;;;;;;;;;5089243;28;20361;-79
2021/08/08 11:36:36;;;;;;;3.40;1.27;;;;;;;;;;5086507;28;20388;-83
2021/08/08 11:39:04;;;;;;;4.10;2.10;;;;;;;;;;5087736;28;20399;-79
2021/08/08 11:41:30;;;;;;;5.45;2.00;;;;;;;;;;5088423;28;20373;-81
2021/08/08 11:44:04;;;;;;;2.47;1.80;;;;;;;;;;5088878;28;20465;-78
2021/08/08 11:46:30;;;;;;;6.80;2.10;;;;;;;;;;5088733;28;20551;-79
2021/08/08 11:48:57;;;;;;;4.47;1.70;;;;;;;;;;5085534;28;20874;-79
2021/08/08 11:51:23;;;;;;;4.38;1.63;;;;;;;;;;5087212;28;20365;-79
2021/08/08 11:53:56;;;;;;;3.40;1.70;;;;;;;;;;5087124;28;20412;-80
2021/08/08 11:56:28;;;;;;;2.97;1.30;;;;;;;;;;5087477;28;20418;-79
2021/08/08 11:58:55;;;;;;;5.28;1.50;;;;;;;;;;5086452;28;20379;-80
2021/08/08 12:01:25;;;;;;;2.97;1.30;;;;;;;;;;5087451;28;20417;-81
2021/08/08 12:03:54;;;;;;;4.28;1.30;;;;;;;;;;5087256;28;20369;-79
2021/08/08 12:06:24;;;;;;;3.63;1.50;;;;;;;;;;5087169;28;20356;-79
2021/08/08 12:08:54;;;;;;;4.13;1.73;;;;;;;;;;5084772;28;20481;-79
2021/08/08 12:11:20;;;;;;;3.13;1.63;;;;;;;;;;5086931;28;20368;-78
2021/08/08 12:14:06;;;;;;;4.82;1.77;;;;;;;;;;5068653;28;20827;-81
2021/08/08 12:16:36;;;;;;;3.30;1.40;;;;;;;;;;5086574;28;20867;-77
2021/08/08 12:19:03;;;;;;;8.00;1.57;;;;;;;;;;5083771;28;20380;-77
2021/08/08 12:21:39;;;;;;;2.45;1.50;;;;;;;;;;5087401;28;20387;-79
2021/08/08 12:24:09;;;;;;;3.70;1.80;;;;;;;;;;5088913;28;20460;-83
2021/08/08 12:26:35;;;;;;;2.00;1.30;;;;;;;;;;5089841;28;20729;-79
2021/08/08 12:29:02;;;;;;;3.75;1.45;;;;;;;;;;5090091;28;20384;-79
2021/08/08 12:31:34;;;;;;;3.20;1.57;;;;;;;;;;5089514;28;20854;-77
2021/08/08 12:34:00;;;;;;;4.03;1.50;;;;;;;;;;5091532;28;20387;-81
2021/08/08 12:36:35;;;;;;;4.28;1.85;;;;;;;;;;5071158;28;20452;-80
2021/08/08 12:39:01;;;;;;;3.27;1.97;;;;;;;;;;5088977;28;20372;-79
2021/08/08 12:41:31;;;;;;;4.00;1.90;;;;;;;;;;5086839;28;20503;-81
2021/08/08 12:44:01;;;;;;;6.25;2.40;;;;;;;;;;5089049;28;20506;-80
2021/08/08 12:46:35;;;;;;;4.55;2.17;;;;;;;;;;5070378;28;20727;-78
2021/08/08 12:49:02;;;;;;;5.68;2.20;;;;;;;;;;5071109;28;20404;-80
2021/08/08 12:51:28;;;;;;;5.50;2.10;;;;;;;;;;5088863;28;20464;-81
2021/08/08 12:53:55;;;;;;;4.85;2.35;;;;;;;;;;5070259;28;20804;-81
2021/08/08 12:56:21;;;;;;;3.47;2.20;;;;;;;;;;5086215;28;20368;-80
2021/08/08 12:58:50;;;;;;;4.63;2.10;;;;;;;;;;5068243;28;20731;-79
2021/08/08 13:01:19;;;;;;;4.68;2.17;;;;;;;;;;5083912;28;20384;-80
2021/08/08 13:03:45;;;;;;;3.30;1.83;;;;;;;;;;5069083;28;20415;-79